Time;durP1;ratioP1;P1;durP2;ratioP2;P2;SDS_P1;SDS_P2;PMS_P1;PMS_P2;Temp;Humidity;BMP_temperature;BMP_pressure;BME280_temperature;BME280_humidity;BME280_pressure;Samples;Min_cycle;Max_cycle;Signal;HPM_P1;HPM_P2
2023/03/13 00:00:50;;;;;;;15.80;7.57;;;;;;;8.72;87.32;98526.50;6178073;23;20018;-62
2023/03/13 00:03:15;;;;;;;11.95;7.00;;;;;;;8.81;86.46;98517.09;6202656;23;20558;-61
2023/03/13 00:05:40;;;;;;;14.95;8.20;;;;;;;8.63;85.74;98468.53;6203039;23;20008;-64
2023/03/13 00:08:06;;;;;;;11.75;7.57;;;;;;;9.00;85.47;98517.09;6202863;23;20019;-63
2023/03/13 00:10:31;;;;;;;14.23;7.88;;;;;;;8.91;85.82;98517.09;6202316;23;20079;-62
2023/03/13 00:12:57;;;;;;;12.27;7.25;;;;;;;8.85;86.82;98513.25;6230607;23;20325;-62
2023/03/13 00:15:22;;;;;;;14.63;9.07;;;;;;;8.91;86.99;98504.97;6230131;23;20004;-62
2023/03/13 00:17:48;;;;;;;11.88;7.45;;;;;;;8.83;86.63;98497.03;6202988;23;20008;-62
2023/03/13 00:20:16;;;;;;;14.27;7.90;;;;;;;8.91;87.17;98501.53;6203289;23;20023;-62
2023/03/13 00:22:41;;;;;;;15.25;7.45;;;;;;;8.78;87.91;98497.44;6229554;23;20011;-62
2023/03/13 00:25:07;;;;;;;11.82;7.57;;;;;;;8.57;92.09;98507.13;6202746;23;20004;-62
2023/03/13 00:27:33;;;;;;;13.13;7.45;;;;;;;8.17;96.58;98513.94;6200919;23;20012;-63
2023/03/13 00:29:59;;;;;;;11.55;7.38;;;;;;;7.78;100.00;98463.81;6202935;23;20008;-61
2023/03/13 00:32:24;;;;;;;11.05;7.57;;;;;;;7.99;100.00;98507.75;6203132;23;20504;-64
2023/03/13 00:34:50;;;;;;;13.27;7.97;;;;;;;8.02;100.00;98505.72;6229465;23;20099;-61
2023/03/13 00:37:15;;;;;;;13.43;7.88;;;;;;;8.03;100.00;98491.00;6178677;23;20012;-62
2023/03/13 00:39:41;;;;;;;11.80;7.47;;;;;;;8.03;100.00;98491.84;6177285;23;20019;-63
2023/03/13 00:42:06;;;;;;;13.98;7.47;;;;;;;7.96;100.00;98466.56;6202921;23;20007;-62
2023/03/13 00:44:32;;;;;;;11.85;6.95;;;;;;;7.91;100.00;98473.94;6201552;23;20443;-63
2023/03/13 00:46:57;;;;;;;19.00;7.03;;;;;;;8.00;100.00;98480.91;6202795;23;20612;-62
2023/03/13 00:49:22;;;;;;;12.02;6.90;;;;;;;8.25;99.65;98490.81;6195343;22;20601;-61
2023/03/13 00:51:48;;;;;;;12.23;7.35;;;;;;;8.08;98.52;98465.53;6230177;22;20035;-63
2023/03/13 00:54:13;;;;;;;15.27;7.03;;;;;;;8.55;96.35;98509.84;6230885;22;20008;-62
2023/03/13 00:56:38;;;;;;;12.82;6.70;;;;;;;8.65;94.92;98502.06;6231678;22;20010;-62
2023/03/13 00:59:04;;;;;;;12.65;7.28;;;;;;;8.62;93.10;98460.88;6204765;22;20340;-62
2023/03/13 01:01:34;;;;;;;13.45;6.95;;;;;;;8.98;91.92;98505.22;6205234;22;19999;-62
2023/03/13 01:04:05;;;;;;;10.60;6.05;;;;;;;8.98;92.22;98503.47;6203110;22;20061;-63
2023/03/13 01:06:33;;;;;;;13.48;6.70;;;;;;;9.02;93.10;98516.97;6229153;22;20050;-62
2023/03/13 01:08:59;;;;;;;9.90;6.25;;;;;;;8.64;93.25;98480.50;6229342;22;20061;-62
2023/03/13 01:11:27;;;;;;;12.90;6.63;;;;;;;8.85;93.74;98514.09;6227382;22;20360;-62
2023/03/13 01:13:54;;;;;;;13.18;7.10;;;;;;;8.92;92.95;98513.56;6206775;22;20016;-62
2023/03/13 01:16:21;;;;;;;11.05;6.53;;;;;;;8.99;92.41;98525.03;6232244;22;20515;-62
2023/03/13 01:18:49;;;;;;;14.23;7.18;;;;;;;8.71;91.87;98486.00;6232187;22;20504;-63
2023/03/13 01:21:15;;;;;;;11.85;6.72;;;;;;;8.94;91.09;98524.59;6232007;22;20040;-63
2023/03/13 01:23:40;;;;;;;11.32;7.43;;;;;;;8.82;91.69;98519.56;6231330;22;20155;-62
2023/03/13 01:26:07;;;;;;;12.02;7.18;;;;;;;8.85;91.30;98534.00;6231383;22;20477;-63
2023/03/13 01:28:34;;;;;;;11.85;7.35;;;;;;;8.78;91.64;98533.75;6232667;22;20065;-63
2023/03/13 01:30:59;;;;;;;14.63;7.35;;;;;;;8.84;90.40;98527.19;6232022;22;20007;-62
2023/03/13 01:33:25;;;;;;;11.32;6.95;;;;;;;8.55;90.33;98490.88;6232026;22;20069;-62
2023/03/13 01:35:50;;;;;;;13.82;7.50;;;;;;;8.88;89.38;98532.94;6206729;22;20011;-64
2023/03/13 01:38:16;;;;;;;12.02;7.47;;;;;;;8.94;89.34;98540.97;6206053;22;20008;-62
2023/03/13 01:40:46;;;;;;;14.82;8.20;;;;;;;8.99;89.11;98538.78;6233504;22;20117;-62
2023/03/13 01:43:18;;;;;;;12.10;6.82;;;;;;;8.96;88.85;98543.44;6206408;22;20440;-63
2023/03/13 01:46:03;;;;;;;13.10;8.02;;;;;;;8.82;89.00;98524.75;6232162;22;20636;-62
2023/03/13 01:49:00;;;;;;;13.93;7.22;;;;;;;8.70;89.12;98484.34;6222682;23;20038;-64
2023/03/13 01:51:34;;;;;;;12.75;6.90;;;;;;;8.75;89.94;98526.22;6202451;23;20019;-62
2023/03/13 01:54:11;;;;;;;12.73;7.45;;;;;;;8.84;89.64;98543.56;6176789;23;20003;-63
2023/03/13 01:56:47;;;;;;;14.95;7.53;;;;;;;8.75;89.30;98538.38;6229598;23;20476;-62
2023/03/13 01:59:15;;;;;;;18.10;7.55;;;;;;;8.68;90.11;98527.72;6202251;23;20004;-63
2023/03/13 02:01:43;;;;;;;12.43;7.85;;;;;;;8.65;89.88;98508.09;6177867;23;20525;-63
2023/03/13 02:04:08;;;;;;;10.93;7.22;;;;;;;8.49;90.44;98484.47;6202142;23;20038;-63
2023/03/13 02:06:37;;;;;;;12.95;7.32;;;;;;;8.47;90.45;98465.66;6202659;23;20098;-62
2023/03/13 02:09:07;;;;;;;12.45;7.50;;;;;;;8.87;89.36;98507.94;6202855;23;20012;-62
2023/03/13 02:11:45;;;;;;;;;;;;;;;8.98;88.82;98493.09;6179055;23;20012;-63
2023/03/13 02:14:11;;;;;;;11.85;6.68;;;;;;;8.84;88.92;98490.91;6202704;23;19907;-63
2023/03/13 02:16:37;;;;;;;12.45;7.10;;;;;;;8.80;89.33;98497.31;6202908;23;20008;-63
2023/03/13 02:19:10;;;;;;;17.45;7.20;;;;;;;8.63;90.59;98488.41;6203146;23;20011;-63
2023/03/13 02:21:44;;;;;;;13.05;7.43;;;;;;;8.78;90.92;98504.38;6203377;23;20015;-63
2023/03/13 02:24:45;;;;;;;14.73;7.40;;;;;;;8.86;90.84;98501.94;6176600;23;20012;-62
2023/03/13 02:27:11;;;;;;;13.10;7.28;;;;;;;8.58;90.72;98468.09;6078973;23;20615;-62
2023/03/13 02:29:36;;;;;;;10.70;6.57;;;;;;;8.65;91.32;98504.66;6170909;23;20023;-65
2023/03/13 02:32:02;;;;;;;13.05;7.75;;;;;;;8.71;90.85;98495.53;6231660;23;20081;-64
2023/03/13 02:34:30;;;;;;;12.18;7.10;;;;;;;8.58;90.49;98468.09;6202754;23;20007;-62
2023/03/13 02:36:57;;;;;;;13.23;7.53;;;;;;;8.71;90.68;98498.94;6205211;23;20475;-63
2023/03/13 02:39:24;;;;;;;15.77;8.00;;;;;;;8.44;91.11;98466.72;6204016;23;20008;-62
2023/03/13 02:41:50;;;;;;;15.30;7.80;;;;;;;8.75;90.80;98513.28;6203957;23;20497;-62
2023/03/13 02:44:15;;;;;;;13.80;7.85;;;;;;;8.72;90.58;98521.31;6179048;23;20461;-63
2023/03/13 02:46:51;;;;;;;13.23;7.93;;;;;;;8.76;90.61;98527.88;6228570;23;20563;-63
2023/03/13 02:49:29;;;;;;;14.07;7.57;;;;;;;8.87;89.40;98518.31;6193172;23;20715;-63
2023/03/13 02:52:28;;;;;;;13.63;7.72;;;;;;;8.74;90.21;98534.13;6203023;23;20026;-63
2023/03/13 02:55:21;;;;;;;11.57;7.40;;;;;;;8.74;92.01;98524.56;6174492;23;20693;-64
2023/03/13 02:57:46;;;;;;;13.60;7.85;;;;;;;8.58;93.70;98521.69;6219434;22;20460;-63
2023/03/13 03:00:12;;;;;;;13.70;7.85;;;;;;;8.68;92.49;98530.31;6229402;23;20004;-64
2023/03/13 03:02:38;;;;;;;12.65;7.25;;;;;;;8.50;91.84;98504.22;6228958;23;20586;-63
2023/03/13 03:05:04;;;;;;;13.05;7.13;;;;;;;8.78;92.18;98528.56;6204330;23;20004;-63
2023/03/13 03:07:30;;;;;;;11.52;6.85;;;;;;;8.70;92.14;98518.03;6228228;23;20456;-62
2023/03/13 03:09:55;;;;;;;14.55;7.78;;;;;;;8.82;91.47;98516.97;6229432;23;20095;-62
2023/03/13 03:12:21;;;;;;;11.20;7.18;;;;;;;8.86;91.86;98514.91;6228588;23;20805;-63
2023/03/13 03:14:46;;;;;;;15.20;7.97;;;;;;;8.90;90.60;98518.06;6203074;23;20326;-63
2023/03/13 03:17:12;;;;;;;11.85;6.95;;;;;;;8.95;90.60;98529.66;6202904;23;20004;-62
2023/03/13 03:19:37;;;;;;;12.25;7.47;;;;;;;8.94;90.23;98527.19;6229831;22;20004;-62
2023/03/13 03:22:02;;;;;;;15.45;8.30;;;;;;;8.81;91.24;98543.03;6203214;23;20425;-61
2023/03/13 03:24:28;;;;;;;13.32;7.00;;;;;;;8.90;90.68;98547.38;6230066;22;20004;-62
2023/03/13 03:26:53;;;;;;;16.42;8.20;;;;;;;8.93;90.33;98560.09;6203394;23;20020;-62
2023/03/13 03:29:19;;;;;;;13.82;7.55;;;;;;;8.75;90.36;98539.19;6227736;23;20008;-63
2023/03/13 03:31:44;;;;;;;15.40;7.68;;;;;;;8.97;90.49;98573.63;6228395;23;20449;-62
2023/03/13 03:34:10;;;;;;;14.10;7.43;;;;;;;8.94;91.06;98577.28;6227121;23;20023;-61
2023/03/13 03:36:35;;;;;;;13.57;8.07;;;;;;;8.83;90.71;98565.28;6203159;23;20012;-62
2023/03/13 03:39:00;;;;;;;13.38;8.05;;;;;;;8.54;93.16;98572.16;6230711;22;20004;-62
2023/03/13 03:41:26;;;;;;;11.95;7.75;;;;;;;8.64;93.26;98570.44;6227263;23;20008;-62
2023/03/13 03:43:51;;;;;;;13.93;7.75;;;;;;;8.61;93.58;98571.50;6228407;23;20018;-62
2023/03/13 03:46:17;;;;;;;14.15;7.47;;;;;;;8.35;93.99;98531.44;6227637;23;20071;-61
2023/03/13 03:48:42;;;;;;;14.85;7.82;;;;;;;8.52;94.66;98582.66;6220734;23;20016;-61
2023/03/13 03:51:08;;;;;;;14.70;8.02;;;;;;;8.18;96.39;98549.25;6204919;23;20004;-63
2023/03/13 03:53:33;;;;;;;14.93;7.85;;;;;;;8.44;96.50;98567.78;6201810;23;20008;-63
2023/03/13 03:55:59;;;;;;;13.02;8.05;;;;;;;8.39;96.56;98567.31;6202490;23;20004;-62
2023/03/13 03:58:24;;;;;;;12.40;7.53;;;;;;;8.50;95.88;98560.44;6202785;23;20004;-61
2023/03/13 04:00:50;;;;;;;13.05;7.28;;;;;;;8.57;95.60;98577.09;6229088;23;20066;-61
2023/03/13 04:03:15;;;;;;;13.20;7.68;;;;;;;8.59;95.29;98577.78;6201731;23;20020;-64
2023/03/13 04:05:42;;;;;;;14.27;7.85;;;;;;;8.62;94.33;98573.16;6175687;23;20004;-62
2023/03/13 04:08:08;;;;;;;15.10;8.27;;;;;;;8.76;93.83;98578.91;6178162;23;20019;-61
2023/03/13 04:10:34;;;;;;;12.27;7.75;;;;;;;8.73;93.83;98568.81;6201286;23;20008;-62
2023/03/13 04:12:59;;;;;;;12.43;7.65;;;;;;;8.77;92.79;98558.03;6177514;23;20863;-61
2023/03/13 04:15:25;;;;;;;12.43;7.68;;;;;;;8.91;93.05;98567.19;6201459;23;20452;-63
2023/03/13 04:17:50;;;;;;;14.98;8.15;;;;;;;8.86;92.77;98571.97;6228136;23;20004;-65
2023/03/13 04:20:16;;;;;;;13.00;7.35;;;;;;;8.68;91.54;98522.53;6229553;23;20737;-62
2023/03/13 04:22:42;;;;;;;12.10;7.72;;;;;;;9.01;90.88;98559.41;6202384;23;20010;-63
2023/03/13 04:25:08;;;;;;;12.85;7.82;;;;;;;9.12;91.13;98561.88;6175765;23;20054;-63
2023/03/13 04:27:34;;;;;;;12.52;7.35;;;;;;;9.11;91.26;98557.66;6177431;23;20058;-61
2023/03/13 04:29:59;;;;;;;12.60;7.03;;;;;;;9.16;91.01;98554.63;6203281;23;20004;-62
2023/03/13 04:32:25;;;;;;;11.70;7.22;;;;;;;9.11;90.93;98547.28;6175897;23;20008;-62
2023/03/13 04:34:50;;;;;;;13.65;8.05;;;;;;;9.16;90.38;98546.84;6203278;23;20042;-62
2023/03/13 04:37:16;;;;;;;11.80;7.25;;;;;;;9.07;90.22;98521.72;6229974;23;20011;-62
2023/03/13 04:39:41;;;;;;;14.27;7.47;;;;;;;9.17;89.87;98551.09;6201330;23;20012;-62
2023/03/13 04:42:09;;;;;;;12.38;7.95;;;;;;;9.13;90.39;98549.75;6202714;23;20449;-63
2023/03/13 04:44:34;;;;;;;14.15;7.72;;;;;;;8.81;91.27;98511.91;6176569;23;20015;-61
2023/03/13 04:47:00;;;;;;;15.48;8.95;;;;;;;9.01;91.55;98536.06;6202735;23;20008;-63
2023/03/13 04:49:25;;;;;;;12.95;8.02;;;;;;;9.12;91.75;98545.50;6200108;22;20026;-62
2023/03/13 04:51:51;;;;;;;13.32;7.70;;;;;;;9.11;90.83;98564.59;6231673;22;20009;-63
2023/03/13 04:54:16;;;;;;;14.20;7.70;;;;;;;9.10;91.08;98563.78;6233164;22;20039;-62
2023/03/13 04:56:41;;;;;;;12.85;7.82;;;;;;;9.14;90.64;98566.91;6208481;22;20007;-63
2023/03/13 04:59:08;;;;;;;12.57;7.90;;;;;;;8.80;91.26;98526.66;6231709;22;20003;-62
2023/03/13 05:01:33;;;;;;;12.98;7.30;;;;;;;8.96;92.00;98577.16;6233753;22;20010;-64
2023/03/13 05:03:59;;;;;;;14.27;7.60;;;;;;;9.04;91.24;98572.13;6206761;22;20039;-63
2023/03/13 05:06:24;;;;;;;12.13;7.75;;;;;;;9.04;91.02;98570.34;6231633;22;20007;-61
2023/03/13 05:08:50;;;;;;;14.00;7.80;;;;;;;9.13;90.44;98579.09;6259096;22;20307;-62
2023/03/13 05:11:15;;;;;;;13.07;7.75;;;;;;;8.83;91.45;98582.59;6232761;22;20805;-62
2023/03/13 05:13:40;;;;;;;13.35;7.80;;;;;;;8.81;91.67;98590.50;6232731;22;20065;-62
2023/03/13 05:16:06;;;;;;;18.00;8.48;;;;;;;8.77;92.04;98590.91;6257841;22;20541;-62
2023/03/13 05:18:32;;;;;;;13.25;7.43;;;;;;;8.65;92.93;98588.44;6232821;22;20011;-62
2023/03/13 05:20:57;;;;;;;15.18;8.23;;;;;;;8.79;92.97;98592.41;6205339;22;20038;-62
2023/03/13 05:23:22;;;;;;;16.52;8.32;;;;;;;8.91;93.31;98590.53;6231924;22;20008;-61
2023/03/13 05:25:48;;;;;;;15.75;7.82;;;;;;;9.04;92.40;98598.88;6228914;22;20378;-62
2023/03/13 05:28:13;;;;;;;13.27;7.90;;;;;;;8.97;93.05;98583.97;6230161;22;20026;-64
2023/03/13 05:30:39;;;;;;;13.77;7.85;;;;;;;8.96;92.76;98590.13;6230789;22;20008;-63
2023/03/13 05:33:04;;;;;;;12.38;8.02;;;;;;;8.93;92.45;98578.25;6257834;22;20107;-62
2023/03/13 05:35:29;;;;;;;16.48;8.38;;;;;;;8.93;92.33;98574.84;6206850;22;20531;-62
2023/03/13 05:37:55;;;;;;;14.75;8.00;;;;;;;8.99;92.43;98576.88;6258412;22;20018;-61
2023/03/13 05:40:20;;;;;;;14.82;7.97;;;;;;;9.01;92.68;98565.41;6233057;22;20022;-63
2023/03/13 05:42:45;;;;;;;11.20;7.68;;;;;;;9.07;92.22;98561.44;6208395;22;20022;-61
2023/03/13 05:45:11;;;;;;;12.77;8.43;;;;;;;9.08;92.21;98570.06;6263540;22;20007;-61
2023/03/13 05:47:38;;;;;;;13.25;7.53;;;;;;;9.04;92.18;98564.34;6235084;22;20371;-61
2023/03/13 05:50:05;;;;;;;13.20;7.43;;;;;;;9.01;92.89;98568.00;6182021;23;20770;-61
2023/03/13 05:52:30;;;;;;;12.48;7.78;;;;;;;9.13;92.45;98588.66;6179053;23;20105;-61
2023/03/13 05:54:56;;;;;;;16.13;7.40;;;;;;;9.04;93.16;98595.47;6204303;23;20016;-63
2023/03/13 05:57:21;;;;;;;13.77;8.05;;;;;;;8.85;93.00;98584.13;6229778;23;20480;-61
2023/03/13 05:59:47;;;;;;;12.82;8.40;;;;;;;8.89;92.60;98578.63;6203823;23;20087;-63
2023/03/13 06:02:12;;;;;;;15.20;8.05;;;;;;;8.63;92.48;98532.47;6202164;23;20008;-63
2023/03/13 06:04:38;;;;;;;13.75;7.95;;;;;;;8.91;93.54;98574.97;6203432;23;20008;-61
2023/03/13 06:07:03;;;;;;;13.65;8.25;;;;;;;8.95;94.60;98586.72;6178503;23;20012;-62
2023/03/13 06:09:28;;;;;;;12.02;7.75;;;;;;;8.84;95.73;98585.06;6178261;23;20617;-62
2023/03/13 06:11:54;;;;;;;14.00;8.60;;;;;;;8.79;96.23;98582.03;6178945;23;20481;-61
2023/03/13 06:14:19;;;;;;;16.33;8.02;;;;;;;8.84;95.33;98568.69;6202585;23;20014;-62
2023/03/13 06:16:45;;;;;;;13.00;7.35;;;;;;;8.93;95.17;98562.69;6202698;23;20213;-62
2023/03/13 06:19:11;;;;;;;12.48;7.10;;;;;;;8.88;94.94;98548.50;6203319;23;20019;-61
2023/03/13 06:21:36;;;;;;;14.77;8.68;;;;;;;8.84;95.44;98551.34;6229412;23;20087;-61
2023/03/13 06:24:02;;;;;;;14.48;7.80;;;;;;;8.71;96.29;98543.00;6203399;23;20008;-62
2023/03/13 06:26:28;;;;;;;12.70;7.97;;;;;;;8.94;95.04;98542.75;6174413;23;20004;-63
2023/03/13 06:28:53;;;;;;;12.73;7.45;;;;;;;8.81;94.43;98509.31;6222727;23;20004;-61
2023/03/13 06:31:19;;;;;;;13.93;7.82;;;;;;;9.07;95.35;98561.44;6200011;23;20004;-63
2023/03/13 06:33:44;;;;;;;14.75;7.93;;;;;;;9.08;95.38;98549.31;6198704;23;20039;-63
2023/03/13 06:36:09;;;;;;;14.93;7.95;;;;;;;9.04;95.49;98518.47;6195997;23;20014;-62
2023/03/13 06:38:35;;;;;;;13.25;7.50;;;;;;;9.25;94.28;98535.63;6171923;23;20443;-61
2023/03/13 06:41:00;;;;;;;13.38;8.52;;;;;;;9.17;95.17;98525.97;6202252;23;20603;-61
2023/03/13 06:43:26;;;;;;;15.70;8.15;;;;;;;9.18;95.46;98526.78;6203233;23;20620;-62
2023/03/13 06:45:51;;;;;;;14.32;7.57;;;;;;;9.36;94.32;98532.09;6178210;23;20054;-61
2023/03/13 06:48:17;;;;;;;13.48;8.15;;;;;;;9.02;94.16;98483.25;6206969;22;20625;-61
2023/03/13 06:50:43;;;;;;;15.02;8.60;;;;;;;9.32;94.48;98554.91;6234033;22;20446;-60
2023/03/13 06:53:15;;;;;;;14.75;7.88;;;;;;;9.29;94.11;98565.56;6233112;22;20078;-60
2023/03/13 06:55:41;;;;;;;17.27;8.82;;;;;;;9.15;95.12;98558.19;6208057;22;20084;-61
2023/03/13 06:58:06;;;;;;;14.05;8.10;;;;;;;9.08;95.18;98555.31;6233031;22;20012;-61
2023/03/13 07:00:33;;;;;;;17.20;8.23;;;;;;;9.02;95.03;98550.69;6207057;22;20090;-60
2023/03/13 07:02:58;;;;;;;13.95;7.93;;;;;;;9.16;94.39;98565.84;6234281;22;20680;-61
2023/03/13 07:05:23;;;;;;;12.65;7.63;;;;;;;9.19;94.68;98560.38;6206894;22;20042;-59
2023/03/13 07:07:49;;;;;;;13.77;8.40;;;;;;;9.28;94.51;98569.09;6233733;22;20008;-61
2023/03/13 07:10:14;;;;;;;11.90;7.40;;;;;;;9.22;95.38;98565.28;6234347;22;20061;-61
2023/03/13 07:12:40;;;;;;;14.32;7.55;;;;;;;9.11;96.30;98570.63;6233172;22;20011;-63
2023/03/13 07:15:06;;;;;;;12.48;7.72;;;;;;;9.18;95.85;98582.09;6233821;22;20011;-62
2023/03/13 07:17:31;;;;;;;14.45;7.82;;;;;;;9.34;95.37;98578.94;6208134;22;20841;-62
2023/03/13 07:19:57;;;;;;;13.82;7.80;;;;;;;9.47;94.44;98570.84;6233760;22;20015;-67
2023/03/13 07:22:22;;;;;;;15.95;8.45;;;;;;;9.58;92.74;98586.31;6232444;22;20011;-61
2023/03/13 07:24:47;;;;;;;14.77;8.43;;;;;;;9.73;91.77;98601.41;6233583;22;20007;-61
2023/03/13 07:27:13;;;;;;;13.02;7.53;;;;;;;9.86;90.50;98601.97;6206186;22;20018;-61
2023/03/13 07:29:38;;;;;;;14.23;8.05;;;;;;;9.82;91.59;98606.63;6208589;22;20063;-62
2023/03/13 07:32:04;;;;;;;11.60;7.25;;;;;;;9.79;90.63;98593.09;6205988;22;20594;-61
2023/03/13 07:34:30;;;;;;;11.85;7.38;;;;;;;9.41;89.39;98516.91;6234634;22;20015;-61
2023/03/13 07:36:55;;;;;;;13.35;7.55;;;;;;;10.00;89.05;98596.31;6207776;22;20018;-62
2023/03/13 07:39:21;;;;;;;13.00;7.57;;;;;;;10.06;89.01;98596.69;6257772;22;20012;-63
2023/03/13 07:41:46;;;;;;;12.50;7.40;;;;;;;10.07;88.99;98593.97;6262134;22;20011;-63
2023/03/13 07:44:12;;;;;;;12.32;7.57;;;;;;;9.96;87.49;98568.16;6233485;22;20011;-62
2023/03/13 07:46:37;;;;;;;11.90;7.15;;;;;;;10.09;86.95;98575.63;6236120;22;20061;-62
2023/03/13 07:49:02;;;;;;;13.02;6.97;;;;;;;10.23;86.31;98589.97;6234763;22;20349;-62
2023/03/13 07:51:28;;;;;;;12.48;6.82;;;;;;;10.28;85.81;98601.56;6209504;22;20021;-61
2023/03/13 07:53:53;;;;;;;11.90;6.95;;;;;;;10.31;85.26;98608.25;6232402;22;20424;-61
2023/03/13 07:56:23;;;;;;;13.10;6.78;;;;;;;10.25;83.88;98560.25;6234525;22;20007;-61
2023/03/13 07:58:49;;;;;;;14.70;7.60;;;;;;;10.42;84.14;98602.88;6232023;22;20011;-62
2023/03/13 08:01:16;;;;;;;13.63;6.93;;;;;;;10.57;84.61;98604.06;6234699;22;20003;-61
2023/03/13 08:03:41;;;;;;;15.50;7.93;;;;;;;10.53;84.66;98591.47;6234124;22;20019;-62
2023/03/13 08:06:09;;;;;;;13.75;7.65;;;;;;;10.49;84.56;98575.34;6210432;22;20283;-61
2023/03/13 08:08:36;;;;;;;10.73;6.90;;;;;;;10.57;85.39;98572.03;6208525;22;20016;-61
2023/03/13 08:11:16;;;;;;;12.10;7.25;;;;;;;10.57;84.99;98567.66;6235052;22;20141;-62
2023/03/13 08:13:42;;;;;;;11.18;6.95;;;;;;;10.74;83.10;98557.44;6209098;22;20034;-62
2023/03/13 08:16:12;;;;;;;12.50;7.13;;;;;;;10.78;81.87;98549.16;6210748;22;20058;-62
2023/03/13 08:18:39;;;;;;;12.35;6.43;;;;;;;10.39;82.75;98507.03;6234818;22;20090;-61
2023/03/13 08:21:08;;;;;;;14.95;6.38;;;;;;;10.69;82.73;98549.25;6235494;22;20439;-61
2023/03/13 08:23:33;;;;;;;12.45;6.50;;;;;;;10.70;82.45;98538.69;6231124;22;20528;-61
2023/03/13 08:26:07;;;;;;;14.88;6.47;;;;;;;10.68;82.69;98539.81;6201647;22;20011;-61
2023/03/13 08:28:34;;;;;;;11.43;6.30;;;;;;;10.84;83.05;98544.34;6208471;22;20004;-61
2023/03/13 08:31:23;;;;;;;11.90;6.60;;;;;;;10.82;82.32;98547.09;6233728;22;19999;-62
2023/03/13 08:33:49;;;;;;;11.75;6.95;;;;;;;10.77;83.24;98576.16;6261967;22;20003;-61
2023/03/13 08:36:23;;;;;;;14.77;6.25;;;;;;;10.56;83.54;98553.00;6235434;22;20299;-60
2023/03/13 08:38:50;;;;;;;13.07;5.97;;;;;;;10.80;83.14;98595.84;6210999;22;20094;-61
2023/03/13 08:41:18;;;;;;;12.38;5.60;;;;;;;10.84;82.81;98581.59;6234257;22;20007;-61
2023/03/13 08:43:44;;;;;;;12.88;6.03;;;;;;;10.86;82.95;98597.88;6208705;22;20109;-63
2023/03/13 08:46:10;;;;;;;10.55;5.38;;;;;;;10.64;83.10;98560.09;6232826;22;20027;-61
2023/03/13 08:48:36;;;;;;;10.73;5.20;;;;;;;10.93;82.79;98579.88;6227528;23;20035;-60
2023/03/13 08:51:09;;;;;;;10.40;4.53;;;;;;;11.02;83.07;98585.97;6205831;23;20416;-62
2023/03/13 08:53:35;;;;;;;12.20;4.90;;;;;;;11.00;82.26;98593.13;6204605;23;20004;-61
2023/03/13 08:56:01;;;;;;;11.18;4.47;;;;;;;11.05;82.47;98598.69;6203330;23;20011;-63
2023/03/13 08:58:27;;;;;;;8.98;4.18;;;;;;;11.11;82.06;98579.88;6176423;23;20004;-62
2023/03/13 09:00:53;;;;;;;13.55;5.00;;;;;;;11.22;81.71;98591.84;6177959;23;20399;-60
2023/03/13 09:03:19;;;;;;;11.30;4.93;;;;;;;11.29;81.52;98593.72;6202829;23;20004;-62
2023/03/13 09:05:46;;;;;;;12.13;4.60;;;;;;;11.38;80.91;98583.38;6177728;23;20010;-61
2023/03/13 09:08:12;;;;;;;10.57;5.18;;;;;;;11.45;81.50;98584.41;6204694;23;20012;-61
2023/03/13 09:10:38;;;;;;;12.65;4.43;;;;;;;11.42;80.61;98563.88;6204593;23;20014;-61
2023/03/13 09:13:03;;;;;;;11.10;4.43;;;;;;;11.48;80.16;98573.69;6179194;23;20094;-60
2023/03/13 09:15:29;;;;;;;9.52;4.35;;;;;;;11.38;81.24;98562.56;6178593;23;20138;-61
2023/03/13 09:17:54;;;;;;;9.00;4.18;;;;;;;11.39;81.40;98580.63;6177783;23;20405;-60
2023/03/13 09:20:20;;;;;;;10.32;4.40;;;;;;;11.47;81.38;98574.66;6180896;23;20097;-61
2023/03/13 09:22:45;;;;;;;14.35;3.90;;;;;;;11.51;80.80;98573.38;6179850;23;20478;-61
2023/03/13 09:25:12;;;;;;;10.60;4.15;;;;;;;11.46;80.37;98575.63;6205367;23;20614;-64
2023/03/13 09:27:37;;;;;;;10.50;4.25;;;;;;;11.67;79.72;98586.53;6205421;23;20460;-64
2023/03/13 09:30:03;;;;;;;10.52;4.25;;;;;;;11.60;78.97;98561.25;6181361;23;20058;-61
2023/03/13 09:32:29;;;;;;;10.52;4.30;;;;;;;11.89;78.36;98581.78;6179327;23;20070;-61
2023/03/13 09:34:54;;;;;;;12.82;4.32;;;;;;;11.67;77.83;98541.44;6204498;23;20016;-61
2023/03/13 09:37:20;;;;;;;10.65;4.22;;;;;;;11.96;77.33;98580.22;6232441;23;20481;-63
2023/03/13 09:39:47;;;;;;;9.10;4.50;;;;;;;11.92;77.34;98571.91;6180666;23;20480;-61
2023/03/13 09:42:39;;;;;;;10.93;3.80;;;;;;;12.04;77.31;98566.41;6206320;23;20008;-60
2023/03/13 09:45:12;;;;;;;11.32;3.58;;;;;;;11.98;77.15;98544.41;6206738;23;20028;-62
2023/03/13 09:47:51;;;;;;;13.27;4.35;;;;;;;12.02;77.42;98556.16;6181133;23;20147;-61
2023/03/13 09:50:22;;;;;;;9.18;4.20;;;;;;;12.04;77.38;98535.16;6211082;22;20108;-62
2023/03/13 09:52:50;;;;;;;10.70;4.20;;;;;;;12.15;76.69;98539.28;6211933;22;20031;-61
2023/03/13 09:55:22;;;;;;;9.13;4.15;;;;;;;11.95;76.37;98513.44;6210924;22;20332;-62
2023/03/13 09:57:54;;;;;;;8.90;4.82;;;;;;;12.17;76.24;98553.78;6238062;22;20106;-63
2023/03/13 10:00:26;;;;;;;8.40;4.00;;;;;;;12.20;75.83;98565.69;6235576;22;20004;-61
2023/03/13 10:02:55;;;;;;;10.38;4.72;;;;;;;12.22;75.45;98561.94;6227489;22;20011;-62
2023/03/13 10:05:21;;;;;;;12.95;4.80;;;;;;;12.33;75.12;98553.03;6235070;22;20007;-64
2023/03/13 10:07:47;;;;;;;13.85;4.68;;;;;;;12.03;75.16;98518.72;6211612;22;20822;-60
2023/03/13 10:10:18;;;;;;;9.63;4.63;;;;;;;12.17;74.73;98547.75;6236443;22;20086;-60
2023/03/13 10:12:46;;;;;;;11.45;4.18;;;;;;;12.35;74.91;98574.53;6233193;22;20102;-60
2023/03/13 10:15:21;;;;;;;12.02;4.32;;;;;;;12.34;74.48;98566.88;6236268;22;20371;-62
2023/03/13 10:17:46;;;;;;;13.55;5.07;;;;;;;12.38;73.83;98566.41;6235042;22;20015;-62
2023/03/13 10:20:22;;;;;;;12.27;4.75;;;;;;;12.46;74.22;98560.41;6209657;22;20487;-61
2023/03/13 10:22:51;;;;;;;13.27;4.53;;;;;;;12.47;73.33;98549.03;6261886;22;20387;-61
2023/03/13 10:25:37;;;;;;;9.85;4.32;;;;;;;12.64;72.70;98534.22;6210041;22;20039;-60
2023/03/13 10:28:03;;;;;;;13.73;4.78;;;;;;;12.61;72.36;98531.91;6234749;22;20011;-61
2023/03/13 10:30:31;;;;;;;11.02;4.70;;;;;;;12.62;73.15;98510.91;6209547;22;20022;-64
2023/03/13 10:33:10;;;;;;;8.93;4.70;;;;;;;12.68;72.43;98512.06;6209917;22;20703;-62
2023/03/13 10:35:39;;;;;;;8.48;4.53;;;;;;;12.79;71.41;98524.78;6236532;22;20721;-63
2023/03/13 10:38:09;;;;;;;11.60;4.78;;;;;;;12.75;72.63;98517.44;6211131;22;20010;-61
2023/03/13 10:40:34;;;;;;;;;;;;;;;12.72;72.22;98508.13;6264414;22;20052;-60
2023/03/13 10:43:19;;;;;;;;;;;;;;;12.61;72.49;98511.06;6209904;22;20457;-60
2023/03/13 10:45:44;;;;;;;;;;;;;;;12.50;72.54;98520.84;6211133;22;19911;-60
2023/03/13 10:48:13;;;;;;;;;;;;;;;12.49;73.51;98510.56;6212017;22;20469;-61
2023/03/13 10:50:43;;;;;;;;;;;;;;;12.48;73.25;98509.75;6236879;22;19922;-61
2023/03/13 10:53:29;;;;;;;;;;;;;;;12.50;73.28;98504.34;6211842;22;19907;-61
2023/03/13 10:55:54;;;;;;;;;;;;;;;12.53;72.79;98488.38;6241971;22;19911;-61
2023/03/13 10:58:26;;;;;;;;;;;;;;;12.48;73.34;98478.44;6231069;22;19962;-60
2023/03/13 11:00:52;;;;;;;;;;;;;;;12.54;73.22;98476.16;6236544;22;19911;-61
2023/03/13 11:03:19;;;;;;;;;;;;;;;12.52;73.27;98475.50;6235883;22;19960;-60
2023/03/13 11:05:53;;;;;;;;;;;;;;;12.60;73.42;98478.94;6200929;22;19995;-60
2023/03/13 11:08:23;;;;;;;;;;;;;;;12.65;73.07;98491.53;6212132;22;19990;-61
2023/03/13 11:10:58;;;;;;;;;;;;;;;12.71;72.76;98485.66;6236163;22;20283;-61
2023/03/13 11:13:27;;;;;;;;;;;;;;;12.79;73.33;98485.66;6211796;22;20381;-62
2023/03/13 11:15:56;;;;;;;;;;;;;;;12.89;72.94;98475.88;6235746;22;19915;-60
2023/03/13 11:18:23;;;;;;;;;;;;;;;12.93;72.08;98471.16;6232883;22;19994;-62
2023/03/13 11:20:48;;;;;;;;;;;;;;;12.98;71.74;98478.50;6234835;22;19950;-63
2023/03/13 11:23:25;;;;;;;;;;;;;;;12.96;71.74;98475.22;6234207;22;19943;-60
2023/03/13 11:25:51;;;;;;;;;;;;;;;13.04;71.62;98468.22;6211766;22;20311;-61
2023/03/13 11:28:21;;;;;;;;;;;;;;;13.12;70.08;98470.00;6262451;22;19950;-60
2023/03/13 11:30:50;;;;;;;;;;;;;;;13.12;69.91;98461.34;6236377;22;19917;-61
2023/03/13 11:33:35;;;;;;;;;;;;;;;13.17;69.92;98472.94;6262113;22;19994;-61
2023/03/13 11:36:21;;;;;;;;;;;;;;;13.32;70.11;98462.66;6241586;22;19942;-60
2023/03/13 11:38:54;;;;;;;;;;;;;;;13.52;68.61;98455.28;6231678;22;19965;-62